createdAt,value
2018-07-27T00:02:25.951Z,10.00
2018-07-27T00:04:53.541Z,11.13
2018-07-27T00:07:21.177Z,9.90
2018-07-27T00:09:48.710Z,10.27
2018-07-27T00:12:16.250Z,10.73
2018-07-27T00:14:43.948Z,10.70
2018-07-27T00:17:11.610Z,11.47
2018-07-27T00:19:39.140Z,10.90
2018-07-27T00:22:06.688Z,10.33
2018-07-27T00:24:34.248Z,10.87
2018-07-27T00:27:01.799Z,10.30
2018-07-27T00:29:29.353Z,11.47
2018-07-27T00:31:56.932Z,10.83
2018-07-27T00:34:24.633Z,10.93
2018-07-27T00:36:52.218Z,10.03
2018-07-27T00:39:19.733Z,10.20
2018-07-27T00:41:47.400Z,10.07
2018-07-27T00:44:14.996Z,10.97
2018-07-27T00:46:42.619Z,9.70
2018-07-27T00:49:10.149Z,10.03
2018-07-27T00:51:37.695Z,9.70
2018-07-27T00:54:05.222Z,9.70
2018-07-27T00:56:32.761Z,10.17
2018-07-27T00:59:00.316Z,10.10
2018-07-27T01:01:27.847Z,10.10
2018-07-27T01:03:55.440Z,9.50
2018-07-27T01:06:23.822Z,9.70
2018-07-27T01:08:51.408Z,9.37
2018-07-27T01:11:18.927Z,10.20
2018-07-27T01:13:46.448Z,10.73
2018-07-27T01:16:13.986Z,10.20
2018-07-27T01:18:41.534Z,9.97
2018-07-27T01:21:09.154Z,9.87
2018-07-27T01:23:36.700Z,9.50
2018-07-27T01:26:04.417Z,10.47
2018-07-27T01:28:31.936Z,9.63
2018-07-27T01:30:59.438Z,10.20
2018-07-27T01:33:27.172Z,10.87
2018-07-27T01:35:55.079Z,10.50
2018-07-27T01:38:22.601Z,9.50
2018-07-27T01:40:50.146Z,10.53
2018-07-27T01:43:17.645Z,11.07
2018-07-27T01:45:45.118Z,10.43
2018-07-27T01:48:12.711Z,10.00
2018-07-27T01:50:40.200Z,9.70
2018-07-27T01:53:07.928Z,9.80
2018-07-27T01:55:35.467Z,10.80
2018-07-27T01:58:03.047Z,10.30
2018-07-27T02:00:30.703Z,11.37
2018-07-27T02:02:58.366Z,10.90
2018-07-27T02:05:25.900Z,11.17
2018-07-27T02:07:53.489Z,10.40
2018-07-27T02:10:21.032Z,10.33
2018-07-27T02:12:48.656Z,10.73
2018-07-27T02:15:16.365Z,11.17
2018-07-27T02:17:43.955Z,11.60
2018-07-27T02:20:11.526Z,10.83
2018-07-27T02:22:39.093Z,10.70
2018-07-27T02:25:06.636Z,11.07
2018-07-27T02:27:34.181Z,10.60
2018-07-27T02:30:01.722Z,10.03
2018-07-27T02:32:29.329Z,9.60
2018-07-27T02:34:56.882Z,11.40
2018-07-27T02:37:24.492Z,9.30
2018-07-27T02:39:52.055Z,10.83
2018-07-27T02:42:19.610Z,10.60
2018-07-27T02:44:47.186Z,10.63
2018-07-27T02:47:14.696Z,10.20
2018-07-27T02:49:42.254Z,10.40
2018-07-27T02:52:09.757Z,10.30
2018-07-27T02:54:37.303Z,9.67
2018-07-27T02:57:04.844Z,9.60
2018-07-27T02:59:32.403Z,10.30
2018-07-27T03:01:59.942Z,10.27
2018-07-27T03:04:27.479Z,10.70
2018-07-27T03:06:54.985Z,10.40
2018-07-27T03:09:22.542Z,11.80
2018-07-27T03:11:50.080Z,11.33
2018-07-27T03:14:17.675Z,10.90
2018-07-27T03:16:45.209Z,11.40
2018-07-27T03:19:12.871Z,10.87
2018-07-27T03:21:40.399Z,10.90
2018-07-27T03:24:07.989Z,11.17
2018-07-27T03:26:35.534Z,10.73
2018-07-27T03:29:03.223Z,10.87
2018-07-27T03:31:30.777Z,11.50
2018-07-27T03:33:58.326Z,10.90
2018-07-27T03:36:25.831Z,10.60
2018-07-27T03:38:53.376Z,11.20
2018-07-27T03:41:20.937Z,10.57
2018-07-27T03:43:48.591Z,11.80
2018-07-27T03:46:16.115Z,10.53
2018-07-27T03:48:43.655Z,11.30
2018-07-27T03:51:11.185Z,10.83
2018-07-27T03:53:38.732Z,11.40
2018-07-27T03:56:06.271Z,11.43
2018-07-27T03:58:33.796Z,10.97
2018-07-27T04:01:01.338Z,10.10
2018-07-27T04:03:28.940Z,10.77
2018-07-27T04:05:56.491Z,11.50
2018-07-27T04:08:24.048Z,10.13
2018-07-27T04:10:51.589Z,10.77
2018-07-27T04:13:19.180Z,12.10
2018-07-27T04:15:46.692Z,11.10
2018-07-27T04:18:14.233Z,10.57
2018-07-27T04:20:41.759Z,10.90
2018-07-27T04:23:09.295Z,10.40
2018-07-27T04:25:36.831Z,10.63
2018-07-27T04:28:04.656Z,10.50
2018-07-27T04:30:32.185Z,10.10
2018-07-27T04:32:59.733Z,11.13
2018-07-27T04:35:27.329Z,10.60
2018-07-27T04:37:54.852Z,10.10
2018-07-27T04:40:22.460Z,10.70
2018-07-27T04:42:50.035Z,11.13
2018-07-27T04:45:17.654Z,11.20
2018-07-27T04:47:45.181Z,10.67
2018-07-27T04:50:12.748Z,10.60
2018-07-27T04:52:40.271Z,13.23
2018-07-27T04:55:07.868Z,11.67
2018-07-27T04:57:35.384Z,15.17
2018-07-27T05:00:03.626Z,12.47
2018-07-27T05:02:31.375Z,11.57
2018-07-27T05:04:58.951Z,12.30
2018-07-27T05:07:26.484Z,10.30
2018-07-27T05:09:54.032Z,9.60
2018-07-27T05:12:21.558Z,10.07
2018-07-27T05:14:49.166Z,11.43
2018-07-27T05:17:16.679Z,11.27
2018-07-27T05:19:44.223Z,11.00
2018-07-27T05:22:11.939Z,10.53
2018-07-27T05:24:39.631Z,10.47
2018-07-27T05:27:07.141Z,10.70
2018-07-27T05:29:34.756Z,10.20
2018-07-27T05:32:02.267Z,11.13
2018-07-27T05:34:29.804Z,12.13
2018-07-27T05:36:57.364Z,11.37
2018-07-27T05:39:24.920Z,10.83
2018-07-27T05:41:52.457Z,10.17
2018-07-27T05:44:20.019Z,10.23
2018-07-27T05:46:47.632Z,11.17
2018-07-27T05:49:15.288Z,11.60
2018-07-27T05:51:43.013Z,10.93
2018-07-27T05:54:10.592Z,10.90
2018-07-27T05:56:38.148Z,10.50
2018-07-27T05:59:05.754Z,10.40
2018-07-27T06:01:33.316Z,9.97
2018-07-27T06:04:00.865Z,10.30
2018-07-27T06:06:28.464Z,11.10
2018-07-27T06:08:56.011Z,11.37
2018-07-27T06:11:23.518Z,11.07
2018-07-27T06:13:51.124Z,10.40
2018-07-27T06:16:18.652Z,9.83
2018-07-27T06:18:46.249Z,10.20
2018-07-27T06:21:13.959Z,10.30
2018-07-27T06:23:41.670Z,10.07
2018-07-27T06:26:09.296Z,10.33
2018-07-27T06:28:36.839Z,10.43
2018-07-27T06:31:04.500Z,9.80
2018-07-27T06:33:32.169Z,9.67
2018-07-27T06:35:59.746Z,10.80
2018-07-27T06:38:27.477Z,9.63
2018-07-27T06:40:55.166Z,9.53
2018-07-27T06:43:22.714Z,10.00
2018-07-27T06:45:50.368Z,9.53
2018-07-27T06:48:19.047Z,9.67
2018-07-27T06:50:48.048Z,9.87
2018-07-27T06:53:15.705Z,9.20
2018-07-27T06:55:43.893Z,9.80
2018-07-27T06:58:11.414Z,9.00
2018-07-27T07:00:38.976Z,9.10
2018-07-27T07:03:06.506Z,9.70
2018-07-27T07:05:34.055Z,10.30
2018-07-27T07:08:01.598Z,10.10
2018-07-27T07:10:29.139Z,9.40
2018-07-27T07:12:56.648Z,9.80
2018-07-27T07:15:24.346Z,9.03
2018-07-27T07:17:51.870Z,9.17
2018-07-27T07:20:19.438Z,10.63
2018-07-27T07:22:46.973Z,10.07
2018-07-27T07:25:14.566Z,9.60
2018-07-27T07:27:42.091Z,9.23
2018-07-27T07:30:09.697Z,9.23
2018-07-27T07:32:37.232Z,10.17
2018-07-27T07:35:04.961Z,10.00
2018-07-27T07:37:32.490Z,9.30
2018-07-27T07:40:00.041Z,9.43
2018-07-27T07:42:27.620Z,10.70
2018-07-27T07:44:55.177Z,10.03
2018-07-27T07:47:22.762Z,10.43
2018-07-27T07:49:50.576Z,10.90
2018-07-27T07:52:18.114Z,11.03
2018-07-27T07:54:45.794Z,10.30
2018-07-27T07:57:13.328Z,10.50
2018-07-27T07:59:40.894Z,9.27
2018-07-27T08:02:08.419Z,9.40
2018-07-27T08:04:36.029Z,10.07
2018-07-27T08:07:03.689Z,9.43
2018-07-27T08:09:31.257Z,10.23
2018-07-27T08:11:59.416Z,10.20
2018-07-27T08:14:26.984Z,11.23
2018-07-27T08:16:54.562Z,10.77
2018-07-27T08:19:22.124Z,9.97
2018-07-27T08:21:49.716Z,10.57
2018-07-27T08:24:17.269Z,10.30
2018-07-27T08:26:48.827Z,9.83
2018-07-27T08:29:20.526Z,10.27
2018-07-27T08:31:49.514Z,9.77
2018-07-27T08:34:17.685Z,9.97
2018-07-27T08:36:45.666Z,10.07
2018-07-27T08:39:15.156Z,9.47
2018-07-27T08:41:43.148Z,10.20
2018-07-27T08:44:11.922Z,9.70
2018-07-27T08:46:39.611Z,10.10
2018-07-27T08:49:07.369Z,10.27
2018-07-27T08:51:35.002Z,10.50
2018-07-27T08:54:02.601Z,9.80
2018-07-27T08:56:30.169Z,10.60
2018-07-27T08:58:57.701Z,10.80
2018-07-27T09:01:25.298Z,10.37
2018-07-27T09:03:53.307Z,9.70
2018-07-27T09:06:20.904Z,10.37
2018-07-27T09:08:49.248Z,10.10
2018-07-27T09:11:17.016Z,9.80
2018-07-27T09:13:44.566Z,9.93
2018-07-27T09:16:12.128Z,10.53
2018-07-27T09:18:39.680Z,11.00
2018-07-27T09:21:07.239Z,10.40
2018-07-27T09:23:35.092Z,9.70
2018-07-27T09:26:02.691Z,10.00
2018-07-27T09:28:30.324Z,9.93
2018-07-27T09:30:57.889Z,9.80
2018-07-27T09:33:25.403Z,9.20
2018-07-27T09:35:53.381Z,9.73
2018-07-27T09:38:21.075Z,10.40
2018-07-27T09:40:48.968Z,9.50
2018-07-27T09:43:16.992Z,10.27
2018-07-27T09:45:44.796Z,9.80
2018-07-27T09:48:12.419Z,10.30
2018-07-27T09:50:40.428Z,11.03
2018-07-27T09:53:07.982Z,11.10
2018-07-27T09:55:35.528Z,10.50
2018-07-27T09:58:03.124Z,9.77
2018-07-27T10:00:36.415Z,10.63
2018-07-27T10:03:03.931Z,9.53
2018-07-27T10:05:31.502Z,11.80
2018-07-27T10:07:59.346Z,9.63
2018-07-27T10:10:26.907Z,11.73
2018-07-27T10:12:54.510Z,11.27
2018-07-27T10:15:23.149Z,10.23
2018-07-27T10:17:50.720Z,10.17
2018-07-27T10:20:18.298Z,10.33
2018-07-27T10:22:45.827Z,10.00
2018-07-27T10:25:13.496Z,10.60
2018-07-27T10:27:41.073Z,9.00
2018-07-27T10:30:08.580Z,9.20
2018-07-27T10:32:36.293Z,8.87
2018-07-27T10:35:03.837Z,8.53
2018-07-27T10:37:31.808Z,8.90
2018-07-27T10:39:59.462Z,10.07
2018-07-27T10:42:27.022Z,9.07
2018-07-27T10:44:54.625Z,9.93
2018-07-27T10:47:22.176Z,9.07
2018-07-27T10:49:49.919Z,8.80
2018-07-27T10:52:17.683Z,9.50
2018-07-27T10:54:45.263Z,8.63
2018-07-27T10:57:12.875Z,8.87
2018-07-27T10:59:40.403Z,9.27
2018-07-27T11:02:08.112Z,8.03
2018-07-27T11:04:35.771Z,9.17
2018-07-27T11:07:03.415Z,8.60
2018-07-27T11:09:31.077Z,8.80
2018-07-27T11:11:58.623Z,8.20
2018-07-27T11:14:26.141Z,8.57
2018-07-27T11:16:53.704Z,9.13
2018-07-27T11:19:21.315Z,9.40
2018-07-27T11:21:48.841Z,8.67
2018-07-27T11:24:16.345Z,8.40
2018-07-27T11:26:43.910Z,8.23
2018-07-27T11:29:11.544Z,8.50
2018-07-27T11:31:39.108Z,8.20
2018-07-27T11:34:06.633Z,8.27
2018-07-27T11:36:34.219Z,8.40
2018-07-27T11:39:03.876Z,7.83
2018-07-27T11:41:31.451Z,8.00
2018-07-27T11:43:58.962Z,8.43
2018-07-27T11:46:26.534Z,8.10
2018-07-27T11:48:54.053Z,8.07
2018-07-27T11:51:22.157Z,8.00
2018-07-27T11:53:49.695Z,8.10
2018-07-27T11:56:17.190Z,8.73
2018-07-27T11:58:44.739Z,8.30
2018-07-27T12:01:12.364Z,8.17
2018-07-27T12:03:39.937Z,8.57
2018-07-27T12:06:07.476Z,7.80
2018-07-27T12:08:35.020Z,7.90
2018-07-27T12:11:02.615Z,8.60
2018-07-27T12:13:30.263Z,8.33
2018-07-27T12:15:57.919Z,8.10
2018-07-27T12:18:25.580Z,8.53
2018-07-27T12:20:53.379Z,8.10
2018-07-27T12:23:20.688Z,8.27
2018-07-27T12:25:48.203Z,8.10
2018-07-27T12:28:15.774Z,8.47
2018-07-27T12:30:43.357Z,7.83
2018-07-27T12:33:10.631Z,7.67
2018-07-27T12:38:35.014Z,8.30
2018-07-27T12:41:02.506Z,8.80
2018-07-27T12:43:30.029Z,7.17
2018-07-27T12:45:57.535Z,7.40
2018-07-27T12:48:25.092Z,8.30
2018-07-27T12:50:53.060Z,7.70
2018-07-27T12:53:20.589Z,7.93
2018-07-27T12:55:48.089Z,7.60
2018-07-27T12:58:15.592Z,7.33
2018-07-27T13:00:43.104Z,7.77
2018-07-27T13:03:10.622Z,7.70
2018-07-27T13:05:38.112Z,8.00
2018-07-27T13:08:05.660Z,7.00
2018-07-27T13:10:33.200Z,7.33
2018-07-27T13:13:00.712Z,6.30
2018-07-27T13:15:28.220Z,6.57
2018-07-27T13:17:55.764Z,6.00
2018-07-27T13:20:23.427Z,7.50
2018-07-27T13:22:50.989Z,6.70
2018-07-27T13:25:18.570Z,6.60
2018-07-27T13:27:46.088Z,7.10
2018-07-27T13:30:13.535Z,6.30
2018-07-27T13:32:41.016Z,6.57
2018-07-27T13:37:36.474Z,7.23
2018-07-27T13:40:04.910Z,6.20
2018-07-27T13:42:33.856Z,6.33
2018-07-27T13:45:01.394Z,6.60
2018-07-27T13:47:29.162Z,6.83
2018-07-27T13:49:56.676Z,6.27
2018-07-27T13:52:24.239Z,6.10
2018-07-27T13:54:51.808Z,6.40
2018-07-27T13:57:19.400Z,5.80
2018-07-27T13:59:46.938Z,5.83
2018-07-27T14:02:14.676Z,6.20
2018-07-27T14:04:42.215Z,5.50
2018-07-27T14:07:10.604Z,5.60
2018-07-27T14:09:38.222Z,5.53
2018-07-27T14:12:05.832Z,5.70
2018-07-27T14:14:33.412Z,5.97
2018-07-27T14:17:00.952Z,5.27
2018-07-27T14:19:29.127Z,5.50
2018-07-27T14:21:56.666Z,5.70
2018-07-27T14:24:24.224Z,4.50
2018-07-27T14:26:51.868Z,6.00
2018-07-27T14:29:19.508Z,5.03
2018-07-27T14:31:46.956Z,5.27
2018-07-27T14:34:14.506Z,5.23
2018-07-27T14:36:42.036Z,4.97
2018-07-27T14:39:11.551Z,5.10
2018-07-27T14:41:39.106Z,4.90
2018-07-27T14:44:06.692Z,6.00
2018-07-27T14:46:34.516Z,5.63
2018-07-27T14:49:02.108Z,5.83
2018-07-27T14:51:29.723Z,5.37
2018-07-27T14:53:57.274Z,5.80
2018-07-27T14:56:24.752Z,5.00
2018-07-27T14:58:52.288Z,5.70
2018-07-27T15:01:19.790Z,5.20
2018-07-27T15:03:47.339Z,5.73
2018-07-27T15:06:14.855Z,6.20
2018-07-27T15:08:42.456Z,4.80
2018-07-27T15:11:09.973Z,5.30
2018-07-27T15:13:37.509Z,5.83
2018-07-27T15:16:05.245Z,5.63
2018-07-27T15:18:32.897Z,5.23
2018-07-27T15:21:00.378Z,4.83
2018-07-27T15:23:27.893Z,5.53
2018-07-27T15:25:55.411Z,5.77
2018-07-27T15:28:23.187Z,5.90
2018-07-27T15:30:50.838Z,4.97
2018-07-27T15:33:18.437Z,5.13
2018-07-27T15:35:45.959Z,6.03
2018-07-27T15:38:13.468Z,5.33
2018-07-27T15:40:40.996Z,6.43
2018-07-27T15:43:08.514Z,5.03
2018-07-27T15:45:36.022Z,5.80
2018-07-27T15:48:03.591Z,5.30
2018-07-27T15:50:31.242Z,5.03
2018-07-27T15:52:59.796Z,5.80
2018-07-27T15:55:27.318Z,5.60
2018-07-27T15:57:54.811Z,6.10
2018-07-27T16:00:24.256Z,6.37
2018-07-27T16:02:52.206Z,7.00
2018-07-27T16:05:19.721Z,6.70
2018-07-27T16:07:47.325Z,6.17
2018-07-27T16:10:14.881Z,6.80
2018-07-27T16:12:42.363Z,6.30
2018-07-27T16:15:09.868Z,6.20
2018-07-27T16:17:37.395Z,7.13
2018-07-27T16:20:05.014Z,7.13
2018-07-27T16:22:32.573Z,7.27
2018-07-27T16:25:00.165Z,6.80
2018-07-27T16:27:27.683Z,6.77
2018-07-27T16:29:57.899Z,7.07
2018-07-27T16:32:25.403Z,6.90
2018-07-27T16:34:52.943Z,6.37
2018-07-27T16:37:20.455Z,7.53
2018-07-27T16:39:47.984Z,6.97
2018-07-27T16:42:15.496Z,6.60
2018-07-27T16:44:43.037Z,6.93
2018-07-27T16:47:10.559Z,6.70
2018-07-27T16:49:38.092Z,6.47
2018-07-27T16:52:05.632Z,6.97
2018-07-27T16:54:33.135Z,6.70
2018-07-27T16:57:00.754Z,7.30
2018-07-27T16:59:28.312Z,6.90
2018-07-27T17:01:55.851Z,6.87
2018-07-27T17:04:23.365Z,6.60
2018-07-27T17:06:50.837Z,6.63
2018-07-27T17:09:18.413Z,7.50
2018-07-27T17:11:45.927Z,8.00
2018-07-27T17:14:13.438Z,8.73
2018-07-27T17:16:40.954Z,9.67
2018-07-27T17:19:08.443Z,12.70
2018-07-27T17:21:36.275Z,14.17
2018-07-27T17:24:03.838Z,13.63
2018-07-27T17:26:31.363Z,12.87
2018-07-27T17:28:58.903Z,12.33
2018-07-27T17:31:26.509Z,10.73
2018-07-27T17:33:54.012Z,10.80
2018-07-27T17:36:21.554Z,10.50
2018-07-27T17:38:49.443Z,8.70
2018-07-27T17:41:16.990Z,8.40
2018-07-27T17:43:44.506Z,8.17
2018-07-27T17:46:12.062Z,8.03
2018-07-27T17:48:39.546Z,7.67
2018-07-27T17:51:07.237Z,6.70
2018-07-27T17:53:34.750Z,6.57
2018-07-27T17:56:02.561Z,6.13
2018-07-27T17:58:30.080Z,7.07
2018-07-27T18:00:58.155Z,8.37
2018-07-27T18:03:25.695Z,6.27
2018-07-27T18:08:28.842Z,6.10
2018-07-27T18:10:56.441Z,6.57
2018-07-27T18:13:23.958Z,6.50
2018-07-27T18:15:51.510Z,5.93
2018-07-27T18:18:19.054Z,6.67
2018-07-27T18:20:46.574Z,6.13
2018-07-27T18:23:14.096Z,7.30
2018-07-27T18:25:41.649Z,6.67
2018-07-27T18:28:09.274Z,6.53
2018-07-27T18:30:36.804Z,7.37
2018-07-27T18:33:04.436Z,6.83
2018-07-27T18:35:31.945Z,6.80
2018-07-27T18:37:59.482Z,7.50
2018-07-27T18:40:27.078Z,7.03
2018-07-27T18:42:54.628Z,6.50
2018-07-27T18:45:22.266Z,7.50
2018-07-27T18:47:49.919Z,7.83
2018-07-27T18:50:17.459Z,6.97
2018-07-27T18:52:45.032Z,8.00
2018-07-27T18:55:12.560Z,7.03
2018-07-27T18:57:40.080Z,7.83
2018-07-27T19:00:08.354Z,7.50
2018-07-27T19:02:36.055Z,7.57
2018-07-27T19:05:03.607Z,7.40
2018-07-27T19:07:32.006Z,8.23
2018-07-27T19:09:59.510Z,8.00
2018-07-27T19:12:27.107Z,7.80
2018-07-27T19:14:54.627Z,8.20
2018-07-27T19:17:22.158Z,8.73
2018-07-27T19:19:49.994Z,8.60
2018-07-27T19:22:17.531Z,9.10
2018-07-27T19:24:45.058Z,8.70
2018-07-27T19:27:12.629Z,8.63
2018-07-27T19:29:40.149Z,8.43
2018-07-27T19:32:07.685Z,8.77
2018-07-27T19:34:35.180Z,8.93
2018-07-27T19:37:02.796Z,7.97
2018-07-27T19:39:30.370Z,8.03
2018-07-27T19:41:57.917Z,8.40
2018-07-27T19:44:25.572Z,7.73
2018-07-27T19:46:53.125Z,8.53
2018-07-27T19:49:20.639Z,8.67
2018-07-27T19:51:48.136Z,8.77
2018-07-27T19:54:15.845Z,8.10
2018-07-27T19:56:43.369Z,9.00
2018-07-27T19:59:10.874Z,7.80
2018-07-27T20:01:38.392Z,8.17
2018-07-27T20:04:05.947Z,8.60
2018-07-27T20:06:33.489Z,7.67
2018-07-27T20:09:01.020Z,7.97
2018-07-27T20:11:29.426Z,9.10
2018-07-27T20:13:56.935Z,8.53
2018-07-27T20:16:24.449Z,7.80
2018-07-27T20:18:51.971Z,7.17
2018-07-27T20:21:19.511Z,8.23
2018-07-27T20:23:47.011Z,8.97
2018-07-27T20:26:14.515Z,7.43
2018-07-27T20:28:42.080Z,8.10
2018-07-27T20:31:09.574Z,7.77
2018-07-27T20:33:37.135Z,7.90
2018-07-27T20:36:04.803Z,9.47
2018-07-27T20:38:32.328Z,8.20
2018-07-27T20:40:59.938Z,8.90
2018-07-27T20:43:27.471Z,8.10
2018-07-27T20:45:54.979Z,8.20
2018-07-27T20:48:22.520Z,8.67
2018-07-27T20:50:50.036Z,9.40
2018-07-27T20:53:17.541Z,8.80
2018-07-27T20:55:45.036Z,8.60
2018-07-27T20:58:12.634Z,9.00
2018-07-27T21:00:40.122Z,8.67
2018-07-27T21:03:07.653Z,8.27
2018-07-27T21:05:35.162Z,8.60
2018-07-27T21:08:02.726Z,8.80
2018-07-27T21:10:30.279Z,8.63
2018-07-27T21:12:57.883Z,8.50
2018-07-27T21:15:25.429Z,9.30
2018-07-27T21:17:52.943Z,10.10
2018-07-27T21:20:20.475Z,8.40
2018-07-27T21:22:48.007Z,7.77
2018-07-27T21:25:15.517Z,8.80
2018-07-27T21:27:43.131Z,9.23
2018-07-27T21:30:10.707Z,9.00
2018-07-27T21:32:38.238Z,9.03
2018-07-27T21:35:05.736Z,9.93
2018-07-27T21:37:33.275Z,9.10
2018-07-27T21:40:00.772Z,9.37
2018-07-27T21:42:28.300Z,9.40
2018-07-27T21:44:55.827Z,9.60
2018-07-27T21:47:23.396Z,9.50
2018-07-27T21:49:51.105Z,9.03
2018-07-27T21:52:18.734Z,9.67
2018-07-27T21:54:46.237Z,9.63
2018-07-27T21:57:13.759Z,10.00
2018-07-27T21:59:41.317Z,9.97
2018-07-27T22:02:09.055Z,9.97
2018-07-27T22:04:36.716Z,10.40
2018-07-27T22:07:04.356Z,10.63
2018-07-27T22:09:31.928Z,10.00
2018-07-27T22:11:59.492Z,10.60
2018-07-27T22:14:27.256Z,10.17
2018-07-27T22:16:55.203Z,10.77
2018-07-27T22:19:22.900Z,10.13
2018-07-27T22:21:50.396Z,11.00
2018-07-27T22:24:17.914Z,9.80
2018-07-27T22:26:45.403Z,10.33
2018-07-27T22:29:12.899Z,10.00
2018-07-27T22:31:40.501Z,9.70
2018-07-27T22:34:08.015Z,10.90
2018-07-27T22:36:35.571Z,11.07
2018-07-27T22:39:05.207Z,9.87
2018-07-27T22:41:32.781Z,10.53
2018-07-27T22:44:00.416Z,10.40
2018-07-27T22:46:27.910Z,10.00
2018-07-27T22:48:55.488Z,10.33
2018-07-27T22:51:22.967Z,9.87
2018-07-27T22:53:50.499Z,10.43
2018-07-27T22:56:18.208Z,9.77
2018-07-27T22:58:45.715Z,11.00
2018-07-27T23:01:13.207Z,9.80
2018-07-27T23:03:40.796Z,10.23
2018-07-27T23:06:08.302Z,10.40
2018-07-27T23:08:35.908Z,10.23
2018-07-27T23:11:03.473Z,10.87
2018-07-27T23:13:30.994Z,10.40
2018-07-27T23:15:58.502Z,10.93
2018-07-27T23:18:26.363Z,10.43
2018-07-27T23:20:53.930Z,10.77
2018-07-27T23:23:21.510Z,11.00
2018-07-27T23:25:49.024Z,9.40
2018-07-27T23:28:16.675Z,11.70
2018-07-27T23:30:44.232Z,12.20
2018-07-27T23:33:11.779Z,10.30
2018-07-27T23:35:39.297Z,10.80
2018-07-27T23:38:06.913Z,9.70
2018-07-27T23:40:34.387Z,9.90
2018-07-27T23:43:01.919Z,11.50
2018-07-27T23:45:31.928Z,10.57
2018-07-27T23:47:59.406Z,11.17
2018-07-27T23:50:26.955Z,9.90
2018-07-27T23:52:55.254Z,10.60
2018-07-27T23:55:23.179Z,10.80
2018-07-27T23:57:50.760Z,10.50
